Gatewood, West Virginia
Current Conditions -  °F | °C
As of 10:51 AM on Saturday 20 Dec 2014 (Local Time) from KBKW Reporting Station
Overcast Overcast  
Wind Chill: 27°   Ceiling: 3500
Heat Index: 32°   Visibility: 10mi
Dew Point: 25°   Wind: 5mph
Humidity: 75%   Direction: 150°SSE
Pressure: 30.17"   Gusts: NA
Location:  38.0317°N, 81.0282°W
Report Text: KBKW 201551Z AUTO 15004KT 10SM SCT029 BKN035 OVC060 00/M04 A3017 RMK AO2 SNB1455E04 SLP252 P0000 T00001039
Loading
Personal Weather Stations






























Interactive Weather Map New forecast layout! Learn more

10-Day Weather Forecast

Advertisements
Track Severe Weather on mobile